Time;durP1;ratioP1;P1;durP2;ratioP2;P2;SDS_P1;SDS_P2;PMS_P1;PMS_P2;Temp;Humidity;BMP_temperature;BMP_pressure;BME280_temperature;BME280_humidity;BME280_pressure;Samples;Min_cycle;Max_cycle;Signal;HPM_P1;HPM_P2
2022/08/30 00:02:51;;;;;;;13.80;7.22;;;;;;;25.35;56.63;99686.16;5078910;28;20083;-68
2022/08/30 00:05:16;;;;;;;16.38;7.30;;;;;;;25.45;57.31;99722.28;5078926;28;20483;-69
2022/08/30 00:07:42;;;;;;;14.68;7.97;;;;;;;25.37;57.27;99705.69;5077909;28;20029;-69
2022/08/30 00:10:09;;;;;;;19.50;8.25;;;;;;;25.20;57.90;99726.69;5076959;28;20333;-69
2022/08/30 00:12:35;;;;;;;12.68;8.45;;;;;;;25.03;59.20;99727.63;5080041;28;20036;-68
2022/08/30 00:15:01;;;;;;;14.15;8.10;;;;;;;25.22;58.79;99733.47;5080995;28;20283;-68
2022/08/30 00:17:26;;;;;;;22.35;9.45;;;;;;;25.53;57.71;99731.81;5078237;28;20095;-68
2022/08/30 00:19:52;;;;;;;17.73;9.50;;;;;;;25.58;57.44;99729.16;5079400;28;20032;-68
2022/08/30 00:22:17;;;;;;;23.20;10.35;;;;;;;25.31;58.62;99722.97;5080793;28;20032;-68
2022/08/30 00:24:43;;;;;;;17.50;9.27;;;;;;;25.28;58.75;99723.50;5081867;28;20049;-68
2022/08/30 00:27:08;;;;;;;16.50;8.70;;;;;;;25.11;58.75;99696.53;5047666;28;20048;-68
2022/08/30 00:29:34;;;;;;;15.75;7.25;;;;;;;25.38;58.92;99731.72;5079135;28;20028;-68
2022/08/30 00:32:01;;;;;;;15.13;8.35;;;;;;;25.52;58.25;99723.94;5078681;28;20027;-68
2022/08/30 00:34:27;;;;;;;14.65;8.25;;;;;;;25.60;58.07;99720.75;5079402;28;20052;-68
2022/08/30 00:36:52;;;;;;;15.30;8.38;;;;;;;25.58;58.16;99720.19;5077904;28;20032;-68
2022/08/30 00:39:17;;;;;;;14.32;7.43;;;;;;;25.45;58.51;99713.31;5078486;28;20175;-68
2022/08/30 00:41:43;;;;;;;17.25;8.60;;;;;;;25.60;58.23;99712.63;5079207;28;20249;-68
2022/08/30 00:44:10;;;;;;;17.23;8.32;;;;;;;25.48;58.31;99714.69;5078174;28;20431;-68
2022/08/30 00:46:35;;;;;;;13.48;8.68;;;;;;;25.43;58.72;99708.16;5079081;28;20036;-69
2022/08/30 00:49:05;;;;;;;23.50;9.07;;;;;;;25.47;58.71;99705.75;5078582;28;20068;-69
2022/08/30 00:51:32;;;;;;;17.23;9.15;;;;;;;25.43;58.65;99710.06;5077376;28;20024;-68
2022/08/30 00:53:58;;;;;;;18.98;8.55;;;;;;;25.41;59.04;99699.47;5078933;28;20033;-68
2022/08/30 00:56:24;;;;;;;21.60;9.00;;;;;;;25.39;59.29;99700.81;5079352;28;20033;-68
2022/08/30 00:58:54;;;;;;;20.20;9.85;;;;;;;25.23;59.82;99694.47;5081361;28;20226;-68
2022/08/30 01:01:20;;;;;;;23.63;9.82;;;;;;;25.12;60.62;99693.56;5078277;28;20037;-68
2022/08/30 01:03:46;;;;;;;16.27;9.85;;;;;;;25.20;60.41;99694.16;5059851;28;20090;-68
2022/08/30 01:06:15;;;;;;;19.60;10.15;;;;;;;25.19;60.25;99698.78;5079901;28;20031;-68
2022/08/30 01:08:42;;;;;;;17.02;10.63;;;;;;;25.14;60.39;99704.97;5080256;28;20331;-68
2022/08/30 01:11:09;;;;;;;16.20;9.63;;;;;;;25.10;61.03;99709.25;5076984;28;20039;-68
2022/08/30 01:13:34;;;;;;;18.25;9.52;;;;;;;25.14;60.98;99706.84;5077848;28;20043;-68
2022/08/30 01:16:01;;;;;;;20.88;10.13;;;;;;;25.03;61.18;99710.56;5059667;28;20020;-68
2022/08/30 01:18:27;;;;;;;20.63;10.55;;;;;;;25.04;61.27;99702.16;5075267;28;20041;-68
2022/08/30 01:21:02;;;;;;;19.15;9.55;;;;;;;25.07;61.05;99714.38;5073965;28;20029;-68
2022/08/30 01:23:29;;;;;;;17.45;9.70;;;;;;;24.90;61.63;99706.31;5060559;28;20048;-68
2022/08/30 01:25:55;;;;;;;17.35;9.15;;;;;;;24.93;61.71;99716.63;5077625;28;20039;-68
2022/08/30 01:28:24;;;;;;;17.25;9.00;;;;;;;24.80;61.94;99708.91;5077434;28;20028;-68
2022/08/30 01:30:50;;;;;;;17.27;8.43;;;;;;;24.83;61.24;99709.22;5078095;28;20029;-68
2022/08/30 01:33:15;;;;;;;17.67;8.60;;;;;;;24.72;61.53;99695.84;5080297;28;20364;-68
2022/08/30 01:36:03;;;;;;;14.48;8.77;;;;;;;24.72;61.75;99712.09;5061830;28;20036;-68
2022/08/30 01:38:44;;;;;;;19.65;8.93;;;;;;;24.79;61.38;99701.88;5079941;28;20037;-68
2022/08/30 01:41:29;;;;;;;18.08;8.80;;;;;;;24.67;61.76;99707.44;5080937;28;20028;-68
2022/08/30 01:43:58;;;;;;;14.05;8.73;;;;;;;24.62;62.02;99699.25;5077181;28;20032;-68
2022/08/30 01:46:27;;;;;;;17.35;8.93;;;;;;;24.52;62.65;99701.88;5078304;28;20233;-68
2022/08/30 01:48:55;;;;;;;15.48;9.10;;;;;;;24.63;62.27;99706.31;5076940;28;20496;-68
2022/08/30 01:51:22;;;;;;;17.17;9.10;;;;;;;24.62;62.61;99709.28;5076944;28;20073;-69
2022/08/30 01:53:48;;;;;;;20.42;9.45;;;;;;;24.54;62.92;99704.31;5078294;28;20074;-69
2022/08/30 01:56:14;;;;;;;18.83;9.60;;;;;;;24.59;62.87;99705.19;5079876;28;20226;-68
2022/08/30 01:58:41;;;;;;;14.90;9.23;;;;;;;24.48;63.39;99712.38;5080416;28;20338;-68
2022/08/30 02:01:11;;;;;;;16.60;9.48;;;;;;;24.43;63.74;99709.63;5077962;28;20028;-68
2022/08/30 02:03:37;;;;;;;22.38;9.65;;;;;;;24.40;64.34;99720.94;5046891;28;20048;-68
2022/08/30 02:06:07;;;;;;;23.75;10.55;;;;;;;24.43;64.39;99714.22;5078845;28;20104;-69
2022/08/30 02:08:33;;;;;;;18.98;10.63;;;;;;;24.21;65.39;99719.59;5079889;28;20179;-68
2022/08/30 02:10:59;;;;;;;19.38;10.25;;;;;;;24.36;64.88;99710.88;5060600;28;20214;-68
2022/08/30 02:13:26;;;;;;;24.73;10.27;;;;;;;24.56;64.22;99716.53;5076825;28;20336;-68
2022/08/30 02:15:53;;;;;;;17.60;10.68;;;;;;;24.32;64.85;99707.88;5077761;28;20318;-68
2022/08/30 02:18:19;;;;;;;16.48;9.68;;;;;;;24.41;64.51;99705.53;5080608;28;20337;-68
2022/08/30 02:20:44;;;;;;;20.00;11.02;;;;;;;24.28;64.77;99714.03;5062075;28;20032;-68
2022/08/30 02:23:10;;;;;;;17.98;10.70;;;;;;;24.36;64.72;99711.69;5083774;28;20334;-68
2022/08/30 02:25:35;;;;;;;23.70;10.43;;;;;;;24.40;64.62;99715.53;5085168;28;20244;-69
2022/08/30 02:28:01;;;;;;;19.70;10.15;;;;;;;24.50;63.85;99712.94;5082320;28;20024;-68
2022/08/30 02:30:26;;;;;;;14.73;9.85;;;;;;;24.36;64.14;99713.59;5085776;28;20044;-69
2022/08/30 02:32:52;;;;;;;18.67;9.95;;;;;;;24.27;64.65;99724.03;5082865;28;20044;-68
2022/08/30 02:35:17;;;;;;;15.25;10.15;;;;;;;24.36;64.45;99722.53;5084381;28;20218;-68
2022/08/30 02:37:43;;;;;;;17.80;10.05;;;;;;;24.43;64.26;99719.63;5083268;28;20226;-68
2022/08/30 02:40:09;;;;;;;15.30;9.57;;;;;;;24.35;64.05;99718.19;5084127;28;20090;-68
2022/08/30 02:42:35;;;;;;;17.60;9.63;;;;;;;24.38;63.93;99714.16;5082161;28;20036;-68
2022/08/30 02:45:00;;;;;;;20.10;9.60;;;;;;;24.41;63.71;99719.06;5065726;28;20263;-68
2022/08/30 02:47:26;;;;;;;18.40;10.40;;;;;;;24.38;63.56;99711.44;5063710;28;20047;-68
2022/08/30 02:49:51;;;;;;;17.55;10.02;;;;;;;24.28;63.86;99711.34;5083383;28;20055;-68
2022/08/30 02:52:18;;;;;;;17.30;10.00;;;;;;;24.17;64.32;99708.47;5083669;28;20032;-68
2022/08/30 02:54:44;;;;;;;15.60;9.95;;;;;;;24.25;63.98;99720.75;5081196;28;20090;-68
2022/08/30 02:57:10;;;;;;;16.67;10.25;;;;;;;24.32;64.07;99717.88;5084796;28;20258;-68
2022/08/30 02:59:40;;;;;;;14.43;9.65;;;;;;;24.36;63.77;99713.59;5082307;28;20090;-69
2022/08/30 03:02:06;;;;;;;15.15;10.15;;;;;;;24.37;63.99;99717.94;5080804;28;20092;-69
2022/08/30 03:04:31;;;;;;;18.90;11.32;;;;;;;24.47;63.40;99718.06;5083312;28;20044;-68
2022/08/30 03:06:57;;;;;;;19.30;10.48;;;;;;;24.43;63.47;99725.03;5083425;28;20021;-69
2022/08/30 03:09:23;;;;;;;24.92;11.00;;;;;;;24.40;63.73;99718.25;5081853;28;20037;-68
2022/08/30 03:11:48;;;;;;;23.13;11.13;;;;;;;24.44;63.25;99721.25;5083136;28;20051;-68
2022/08/30 03:14:14;;;;;;;20.25;10.88;;;;;;;24.25;63.62;99723.44;5082998;28;20030;-68
2022/08/30 03:16:39;;;;;;;19.42;10.90;;;;;;;24.22;63.69;99715.84;5081961;28;20326;-68
2022/08/30 03:19:05;;;;;;;17.80;10.90;;;;;;;24.12;64.33;99718.41;5083039;28;20322;-68
2022/08/30 03:21:30;;;;;;;21.83;11.38;;;;;;;24.16;64.07;99723.06;5081799;28;20053;-68
2022/08/30 03:23:56;;;;;;;18.55;11.40;;;;;;;24.16;64.23;99720.38;5083027;28;20039;-68
2022/08/30 03:26:21;;;;;;;16.77;10.57;;;;;;;24.13;64.22;99720.03;5082354;28;20043;-68
2022/08/30 03:29:40;;;;;;;21.58;11.10;;;;;;;24.25;64.02;99725.34;5253028;22;20016;-68
2022/08/30 03:32:05;;;;;;;20.42;11.05;;;;;;;24.18;63.65;99726.34;5081997;28;20086;-67
2022/08/30 03:34:31;;;;;;;16.35;10.30;;;;;;;23.97;64.23;99718.22;5084258;28;20056;-68
2022/08/30 03:36:57;;;;;;;21.15;10.48;;;;;;;23.97;64.34;99721.72;5084433;28;20384;-67
2022/08/30 03:39:23;;;;;;;22.67;11.32;;;;;;;24.12;63.97;99726.53;5082707;28;20064;-67
2022/08/30 03:41:49;;;;;;;18.58;10.52;;;;;;;24.19;63.65;99732.56;5083246;28;20021;-67
2022/08/30 03:44:15;;;;;;;14.98;10.70;;;;;;;24.20;63.26;99728.78;5085587;28;20210;-67
2022/08/30 03:46:40;;;;;;;15.25;10.85;;;;;;;24.07;63.45;99729.97;5083250;28;20321;-67
2022/08/30 03:49:06;;;;;;;15.50;10.93;;;;;;;24.08;62.72;99720.78;5082527;28;20055;-67
2022/08/30 03:51:32;;;;;;;17.17;11.40;;;;;;;24.02;62.96;99718.28;5083311;28;20180;-67
2022/08/30 03:53:58;;;;;;;24.13;10.82;;;;;;;24.08;62.70;99734.31;5084371;28;20325;-67
2022/08/30 03:56:24;;;;;;;20.40;10.93;;;;;;;24.09;62.76;99735.13;5083560;28;20024;-67
2022/08/30 03:58:50;;;;;;;20.40;11.25;;;;;;;24.13;62.45;99738.97;5083372;28;20213;-67
2022/08/30 04:01:15;;;;;;;20.50;11.43;;;;;;;24.15;62.44;99743.06;5088098;28;20347;-68
2022/08/30 04:03:41;;;;;;;23.02;11.40;;;;;;;24.38;61.69;99743.94;5082104;28;20024;-67
2022/08/30 04:06:07;;;;;;;23.45;11.25;;;;;;;24.37;61.57;99743.09;5080948;28;20016;-67
2022/08/30 04:08:32;;;;;;;17.38;10.32;;;;;;;24.22;61.79;99728.53;5084415;28;20032;-67
2022/08/30 04:10:59;;;;;;;17.42;10.68;;;;;;;24.37;61.32;99743.09;5082107;28;20041;-67
2022/08/30 04:13:24;;;;;;;16.55;9.73;;;;;;;24.44;61.24;99751.03;5082223;28;21276;-68
2022/08/30 04:15:50;;;;;;;17.88;9.25;;;;;;;24.46;61.10;99747.00;5083746;28;20125;-68
2022/08/30 04:18:16;;;;;;;21.75;10.32;;;;;;;24.42;61.26;99751.28;5083978;28;20028;-67
2022/08/30 04:20:42;;;;;;;14.75;10.32;;;;;;;24.54;60.64;99743.03;5081990;28;20083;-68
2022/08/30 04:23:08;;;;;;;19.83;10.10;;;;;;;24.58;60.08;99748.75;5081868;28;20252;-67
2022/08/30 04:25:35;;;;;;;21.88;10.00;;;;;;;24.65;60.47;99747.50;5084456;28;20032;-68
2022/08/30 04:28:01;;;;;;;27.52;10.60;;;;;;;24.80;60.28;99752.25;5081786;28;20092;-68
2022/08/30 04:30:27;;;;;;;19.83;10.55;;;;;;;24.81;59.60;99760.13;5084136;28;20261;-67
2022/08/30 04:32:53;;;;;;;18.70;9.95;;;;;;;24.77;60.35;99755.47;5082355;28;20030;-67
2022/08/30 04:35:18;;;;;;;14.00;10.35;;;;;;;24.75;60.33;99747.59;5081755;28;20033;-68
2022/08/30 04:37:44;;;;;;;18.42;9.73;;;;;;;24.92;59.60;99752.09;5082203;28;20028;-68
2022/08/30 04:40:10;;;;;;;18.42;10.20;;;;;;;24.97;59.09;99758.44;5064023;28;20028;-67
2022/08/30 04:42:35;;;;;;;17.98;9.30;;;;;;;24.96;59.12;99754.03;5081993;28;20032;-68
2022/08/30 04:45:06;;;;;;;12.95;9.60;;;;;;;24.97;58.81;99757.56;5081454;28;20396;-67
2022/08/30 04:47:31;;;;;;;20.35;9.82;;;;;;;25.02;58.71;99757.69;5082610;28;20338;-68
2022/08/30 04:49:57;;;;;;;19.63;10.63;;;;;;;25.03;58.85;99757.44;5082068;28;20032;-67
2022/08/30 04:52:23;;;;;;;21.13;9.38;;;;;;;25.08;58.71;99762.06;5081160;28;20063;-67
2022/08/30 04:54:56;;;;;;;26.92;9.90;;;;;;;25.29;58.35;99755.75;5081479;28;20304;-68
2022/08/30 04:57:23;;;;;;;20.07;10.60;;;;;;;25.33;58.19;99766.91;5082669;28;20028;-68
2022/08/30 04:59:48;;;;;;;20.02;10.07;;;;;;;25.41;57.97;99763.72;5081146;28;20062;-68
2022/08/30 05:02:14;;;;;;;15.55;10.30;;;;;;;25.43;57.73;99775.13;5082796;28;20311;-68
2022/08/30 05:05:38;;;;;;;17.70;9.80;;;;;;;25.52;57.97;99775.47;5081723;28;20029;-68
2022/08/30 05:07:29;;;;;;;19.38;10.43;;;;;;;25.67;57.44;99778.31;5081255;28;20039;-67
2022/08/30 05:09:54;;;;;;;14.65;9.43;;;;;;;25.66;57.61;99785.63;5082923;28;20070;-67
2022/08/30 05:12:20;;;;;;;17.13;9.02;;;;;;;25.80;57.36;99775.16;5083555;28;20051;-67
2022/08/30 05:14:46;;;;;;;17.08;9.40;;;;;;;25.93;57.54;99777.41;5082758;28;20034;-67
2022/08/30 05:17:11;;;;;;;23.88;9.90;;;;;;;26.06;56.02;99782.41;5081488;28;20036;-68
2022/08/30 05:19:37;;;;;;;16.20;8.90;;;;;;;26.01;55.56;99768.00;5082297;28;20363;-67
2022/08/30 05:22:03;;;;;;;19.33;10.05;;;;;;;26.30;54.97;99762.97;5086405;28;20024;-67
2022/08/30 05:24:28;;;;;;;17.23;9.88;;;;;;;26.35;54.74;99763.84;5085619;28;20043;-68
2022/08/30 05:26:54;;;;;;;23.58;9.85;;;;;;;26.60;53.60;99760.41;5087418;28;20028;-68
2022/08/30 05:29:19;;;;;;;20.73;10.90;;;;;;;26.48;53.53;99770.69;5081663;28;20059;-68
2022/08/30 05:31:44;;;;;;;18.58;10.18;;;;;;;26.67;53.52;99780.00;5076527;28;20044;-67
2022/08/30 05:34:10;;;;;;;21.33;10.05;;;;;;;26.59;54.21;99772.38;5083199;28;20026;-67
2022/08/30 05:36:37;;;;;;;21.70;10.65;;;;;;;26.58;54.41;99770.72;5082898;28;20508;-68
2022/08/30 05:39:04;;;;;;;21.27;9.90;;;;;;;26.78;53.72;99767.25;5080867;28;20041;-67
2022/08/30 05:41:30;;;;;;;21.25;9.73;;;;;;;26.96;54.00;99779.53;5080697;28;20036;-67
2022/08/30 05:43:58;;;;;;;23.27;10.07;;;;;;;27.12;53.42;99786.69;5083774;28;20085;-68
2022/08/30 05:46:28;;;;;;;16.75;9.35;;;;;;;27.42;52.65;99783.16;5081149;28;20035;-68
2022/08/30 05:48:54;;;;;;;18.98;9.18;;;;;;;27.28;52.20;99791.03;5080513;28;20028;-68
2022/08/30 05:51:22;;;;;;;16.38;9.68;;;;;;;27.44;51.62;99786.44;5081922;28;20040;-67
2022/08/30 05:53:50;;;;;;;23.38;9.48;;;;;;;27.93;51.09;99786.69;5082511;28;20028;-68
2022/08/30 05:56:19;;;;;;;18.88;9.10;;;;;;;27.96;51.12;99783.41;5084535;28;20391;-68
2022/08/30 05:58:45;;;;;;;25.88;9.75;;;;;;;27.99;50.12;99782.88;5086130;28;20036;-68
2022/08/30 06:01:32;;;;;;;22.80;9.57;;;;;;;27.94;49.80;99773.91;5083743;28;20040;-68
2022/08/30 06:04:00;;;;;;;26.02;10.27;;;;;;;28.11;49.75;99776.34;5083343;28;20261;-68
2022/08/30 06:06:26;;;;;;;23.58;9.20;;;;;;;28.47;48.83;99771.59;5087010;28;20251;-68
2022/08/30 06:08:52;;;;;;;21.60;9.25;;;;;;;28.44;48.25;99767.53;5086719;28;20044;-68
2022/08/30 06:11:19;;;;;;;20.80;9.15;;;;;;;28.46;48.20;99772.69;5084797;28;20028;-68
2022/08/30 06:13:46;;;;;;;21.90;9.65;;;;;;;28.48;48.19;99774.06;5098860;28;20059;-68
2022/08/30 06:16:12;;;;;;;23.70;9.95;;;;;;;28.58;47.77;99775.91;5104516;28;20036;-68
2022/08/30 06:18:38;;;;;;;19.60;8.80;;;;;;;28.74;47.35;99773.94;5089810;28;20032;-68
2022/08/30 06:21:04;;;;;;;18.67;8.55;;;;;;;28.65;47.56;99775.59;5085600;28;20032;-68
2022/08/30 06:23:30;;;;;;;21.80;9.10;;;;;;;28.87;47.05;99776.88;5086082;28;20066;-68
2022/08/30 06:26:01;;;;;;;18.83;8.90;;;;;;;28.88;47.02;99773.06;5084412;28;20275;-68
2022/08/30 06:28:27;;;;;;;15.88;8.65;;;;;;;29.01;46.61;99778.97;5084405;28;20199;-68
2022/08/30 06:30:52;;;;;;;17.98;8.80;;;;;;;29.26;46.29;99775.28;5083959;28;20104;-68
2022/08/30 06:33:18;;;;;;;20.52;9.57;;;;;;;29.11;46.92;99782.44;5087309;28;20038;-68
2022/08/30 06:35:43;;;;;;;20.55;9.40;;;;;;;29.40;45.98;99781.72;5083915;28;20036;-68
2022/08/30 06:38:08;;;;;;;16.98;9.07;;;;;;;29.45;46.01;99784.44;5067323;28;20043;-67
2022/08/30 06:40:35;;;;;;;19.35;8.23;;;;;;;29.63;45.49;99789.19;5084922;28;20040;-67
2022/08/30 06:43:01;;;;;;;13.43;8.45;;;;;;;29.75;44.37;99775.16;5085176;28;20345;-67
2022/08/30 06:45:26;;;;;;;30.75;8.82;;;;;;;30.00;44.19;99774.91;5084689;28;20239;-67
2022/08/30 06:47:51;;;;;;;17.40;8.77;;;;;;;30.00;44.04;99774.91;5083562;28;20130;-68
2022/08/30 06:50:18;;;;;;;15.90;8.73;;;;;;;30.41;43.55;99779.97;5084377;28;20020;-68
2022/08/30 06:52:44;;;;;;;17.35;8.65;;;;;;;30.70;42.93;99780.69;5084359;28;20043;-68
2022/08/30 06:55:13;;;;;;;14.32;8.20;;;;;;;30.60;42.17;99778.09;5083784;28;20329;-68
2022/08/30 06:57:39;;;;;;;17.63;8.27;;;;;;;30.51;42.48;99774.38;5086577;28;20058;-68
2022/08/30 07:00:08;;;;;;;22.38;9.48;;;;;;;30.35;42.49;99778.41;5087893;28;20028;-68
2022/08/30 07:02:36;;;;;;;15.15;8.18;;;;;;;30.42;42.00;99778.84;5094545;28;20032;-68
2022/08/30 07:05:01;;;;;;;19.70;8.80;;;;;;;30.52;42.19;99773.25;5096360;28;20066;-68
2022/08/30 07:07:27;;;;;;;14.38;8.10;;;;;;;30.83;41.24;99775.59;5093828;28;20028;-68
2022/08/30 07:09:53;;;;;;;19.38;8.55;;;;;;;30.96;40.71;99777.59;5096143;28;20214;-68
2022/08/30 07:12:19;;;;;;;22.02;8.27;;;;;;;31.17;40.51;99772.66;5096847;28;20043;-68
2022/08/30 07:14:45;;;;;;;21.88;7.93;;;;;;;31.31;40.25;99770.84;5095599;28;20033;-68
2022/08/30 07:19:54;;;;;;;16.70;7.35;;;;;;;31.97;38.93;99762.28;5093212;28;20674;-68
2022/08/30 07:22:20;;;;;;;19.95;8.18;;;;;;;31.79;38.58;99756.91;5098087;28;20028;-68
2022/08/30 07:24:46;;;;;;;14.52;8.27;;;;;;;31.43;38.59;99773.91;5092388;28;20623;-68
2022/08/30 07:27:12;;;;;;;20.25;7.88;;;;;;;31.93;38.40;99760.47;5095680;28;20210;-68
2022/08/30 07:29:37;;;;;;;18.35;8.30;;;;;;;32.33;37.65;99776.16;5095383;28;20044;-68
2022/08/30 07:32:03;;;;;;;15.82;8.10;;;;;;;32.63;36.85;99777.44;5092833;28;20047;-68
2022/08/30 07:34:28;;;;;;;23.88;7.53;;;;;;;32.58;36.63;99774.81;5094275;28;20044;-68
2022/08/30 07:36:54;;;;;;;14.13;7.10;;;;;;;32.44;36.52;99773.22;5097375;28;20040;-68
2022/08/30 07:39:20;;;;;;;20.67;8.20;;;;;;;32.37;36.68;99768.13;5093105;28;20039;-68
2022/08/30 07:41:45;;;;;;;15.82;7.57;;;;;;;32.68;36.15;99782.00;5078120;28;20028;-68
2022/08/30 07:44:11;;;;;;;19.30;8.77;;;;;;;32.65;36.23;99782.63;5095214;28;20039;-68
2022/08/30 07:46:38;;;;;;;15.55;8.48;;;;;;;32.40;35.86;99789.47;5096049;28;20042;-68
2022/08/30 07:49:04;;;;;;;14.98;7.70;;;;;;;32.52;36.17;99788.94;5094867;28;20028;-68
2022/08/30 07:51:31;;;;;;;16.77;7.45;;;;;;;32.48;35.27;99779.69;5094961;28;20222;-68
2022/08/30 07:53:56;;;;;;;15.98;8.27;;;;;;;32.32;36.47;99779.22;5095382;28;20121;-68
2022/08/30 07:56:23;;;;;;;24.88;9.40;;;;;;;32.93;35.84;99786.16;5091603;28;20036;-68
2022/08/30 07:58:49;;;;;;;18.75;9.27;;;;;;;32.99;34.67;99782.16;5095600;28;20040;-69
2022/08/30 08:01:16;;;;;;;17.52;9.07;;;;;;;32.42;34.37;99784.47;5093697;28;20044;-68
2022/08/30 08:03:42;;;;;;;15.13;8.32;;;;;;;32.62;34.13;99778.56;5094228;28;20035;-68
2022/08/30 08:06:10;;;;;;;13.82;7.68;;;;;;;32.81;34.33;99780.38;5094124;28;20028;-68
2022/08/30 08:08:38;;;;;;;18.38;8.35;;;;;;;33.08;34.15;99787.72;5095641;28;20039;-68
2022/08/30 08:11:13;;;;;;;17.17;7.55;;;;;;;33.17;32.79;99783.94;5096165;28;20032;-69
2022/08/30 08:13:39;;;;;;;15.70;7.00;;;;;;;33.17;32.07;99778.44;5092665;28;20043;-68
2022/08/30 08:16:05;;;;;;;15.25;6.63;;;;;;;33.55;32.17;99775.38;5095218;28;20043;-68
2022/08/30 08:18:30;;;;;;;16.98;7.85;;;;;;;33.57;33.67;99782.19;5090961;28;20040;-68
2022/08/30 08:20:57;;;;;;;13.73;6.57;;;;;;;33.21;33.08;99782.19;5094124;28;20344;-68
2022/08/30 08:23:22;;;;;;;13.30;7.13;;;;;;;33.64;32.91;99768.81;5095391;28;20036;-68
2022/08/30 08:25:48;;;;;;;15.55;8.07;;;;;;;33.65;33.00;99769.63;5094125;28;20284;-68
2022/08/30 08:28:13;;;;;;;12.05;7.80;;;;;;;33.77;33.27;99771.78;5093741;28;20314;-68
2022/08/30 08:30:39;;;;;;;15.15;7.57;;;;;;;33.90;33.27;99768.16;5081706;28;20036;-68
2022/08/30 08:33:05;;;;;;;14.45;7.65;;;;;;;33.58;33.73;99764.56;5093136;28;20042;-68
2022/08/30 08:35:31;;;;;;;15.25;7.20;;;;;;;33.69;33.17;99767.88;5094918;28;20199;-68
2022/08/30 08:37:56;;;;;;;13.65;7.05;;;;;;;33.78;33.59;99774.22;5095358;28;20332;-68
2022/08/30 08:40:22;;;;;;;13.18;7.20;;;;;;;33.89;32.28;99774.78;5094367;28;20028;-69
2022/08/30 08:43:10;;;;;;;12.45;7.30;;;;;;;34.05;32.38;99769.69;5096663;28;20101;-68
2022/08/30 08:45:54;;;;;;;16.85;7.70;;;;;;;34.09;31.70;99765.97;5092425;28;20043;-68
2022/08/30 08:48:34;;;;;;;;;;;;;;;33.99;32.63;99769.00;5095057;28;20044;-68
2022/08/30 08:53:52;;;;;;;14.73;7.20;;;;;;;33.69;32.78;99764.31;5092348;28;20111;-68
2022/08/30 08:56:20;;;;;;;16.80;7.30;;;;;;;33.34;33.17;99772.34;5092770;28;20112;-68
2022/08/30 08:58:49;;;;;;;13.02;7.20;;;;;;;33.79;32.84;99761.28;5093526;28;20020;-68
2022/08/30 09:01:17;;;;;;;15.10;7.45;;;;;;;33.90;32.96;99751.69;5092417;28;20044;-68
2022/08/30 09:03:44;;;;;;;13.90;6.60;;;;;;;33.79;32.26;99764.03;5093925;28;20287;-68
2022/08/30 09:06:37;;;;;;;12.75;7.00;;;;;;;33.75;32.40;99763.06;5094221;28;20051;-68
2022/08/30 09:09:03;;;;;;;13.88;7.22;;;;;;;33.64;32.72;99757.81;5096501;28;20032;-68
2022/08/30 09:11:31;;;;;;;16.02;7.57;;;;;;;33.77;31.72;99753.38;5094232;28;20056;-68
2022/08/30 09:13:57;;;;;;;13.43;7.35;;;;;;;33.83;32.32;99756.81;5094579;28;20028;-69
2022/08/30 09:16:44;;;;;;;12.07;6.97;;;;;;;34.00;31.95;99754.16;5093809;28;20027;-68
2022/08/30 09:19:10;;;;;;;12.13;6.88;;;;;;;34.34;30.47;99744.47;5094365;28;20027;-68
2022/08/30 09:21:36;;;;;;;17.70;8.23;;;;;;;33.76;31.16;99748.19;5093658;28;20021;-68
2022/08/30 09:24:03;;;;;;;12.15;6.20;;;;;;;33.68;30.88;99748.97;5094624;28;20193;-68
2022/08/30 09:26:36;;;;;;;16.30;6.25;;;;;;;33.80;30.61;99743.69;5094083;28;20044;-68
2022/08/30 09:29:03;;;;;;;11.13;7.00;;;;;;;34.03;30.96;99739.78;5092626;28;20032;-69
2022/08/30 09:31:46;;;;;;;12.65;6.80;;;;;;;34.21;30.60;99738.72;5092052;28;20245;-68
2022/08/30 09:34:17;;;;;;;17.42;6.82;;;;;;;34.20;31.06;99733.53;5096467;28;20039;-68
2022/08/30 09:36:50;;;;;;;13.02;7.68;;;;;;;33.83;31.02;99729.34;5092785;28;20044;-68
2022/08/30 09:39:36;;;;;;;10.18;6.38;;;;;;;33.79;30.54;99728.34;5093530;28;20032;-68
2022/08/30 09:42:22;;;;;;;16.52;7.35;;;;;;;33.66;30.68;99726.50;5095308;28;20044;-68
2022/08/30 09:44:48;;;;;;;13.00;7.05;;;;;;;33.60;30.85;99729.38;5093915;28;20103;-68
2022/08/30 09:47:26;;;;;;;14.43;6.90;;;;;;;33.83;30.68;99721.94;5093933;28;20059;-68
2022/08/30 09:50:12;;;;;;;13.07;6.72;;;;;;;33.81;30.70;99724.19;5109999;28;20091;-68
2022/08/30 09:52:44;;;;;;;11.40;6.22;;;;;;;34.04;30.06;99724.09;5090788;28;20337;-68
2022/08/30 09:55:35;;;;;;;10.63;6.05;;;;;;;33.74;30.00;99707.31;5093988;28;20024;-68
2022/08/30 09:58:12;;;;;;;14.25;6.18;;;;;;;33.75;29.09;99714.44;5091461;28;20051;-68
2022/08/30 10:00:52;;;;;;;15.35;6.88;;;;;;;33.58;30.52;99695.94;5089827;28;20032;-68
2022/08/30 10:03:31;;;;;;;14.45;7.47;;;;;;;33.75;30.88;99697.13;5092026;28;20491;-68
2022/08/30 10:06:12;;;;;;;9.88;6.18;;;;;;;33.88;30.00;99702.56;5092717;28;20036;-68
2022/08/30 10:09:04;;;;;;;12.05;5.57;;;;;;;33.93;29.31;99701.59;5093889;28;20028;-68
2022/08/30 10:11:39;;;;;;;10.73;5.95;;;;;;;33.61;29.61;99694.50;5093408;28;20048;-68
2022/08/30 10:14:13;;;;;;;14.82;6.28;;;;;;;33.67;29.28;99689.69;5093991;28;20205;-68
2022/08/30 10:17:04;;;;;;;15.00;6.88;;;;;;;33.79;29.45;99696.19;5091680;28;20095;-68
2022/08/30 10:19:39;;;;;;;14.23;5.75;;;;;;;33.83;29.37;99682.66;5090818;28;20338;-68
2022/08/30 10:22:14;;;;;;;19.10;5.95;;;;;;;33.71;28.74;99685.97;5091367;28;20040;-68
2022/08/30 10:24:46;;;;;;;15.30;6.75;;;;;;;33.81;29.80;99687.63;5095389;28;20032;-68
2022/08/30 10:27:44;;;;;;;17.63;6.38;;;;;;;33.59;29.90;99683.84;5092004;28;20032;-68
2022/08/30 10:30:15;;;;;;;12.40;5.53;;;;;;;33.42;30.03;99677.44;5079921;28;20338;-68
2022/08/30 10:32:45;;;;;;;12.38;5.97;;;;;;;33.46;29.69;99672.94;5091676;28;20028;-68
2022/08/30 10:35:16;;;;;;;15.98;6.82;;;;;;;33.54;30.23;99669.44;5090800;28;20317;-68
2022/08/30 10:38:01;;;;;;;11.70;5.97;;;;;;;33.77;30.03;99670.16;5092023;28;20028;-68
2022/08/30 10:43:42;;;;;;;16.10;6.22;;;;;;;33.87;30.40;99662.47;5097196;28;20043;-68
2022/08/30 10:46:38;;;;;;;18.77;5.80;;;;;;;33.86;29.92;99660.06;5095901;28;20039;-68
2022/08/30 10:49:13;;;;;;;17.77;6.15;;;;;;;33.90;29.16;99658.28;5060569;28;20324;-68
2022/08/30 10:51:48;;;;;;;12.85;6.10;;;;;;;33.71;29.59;99655.78;5096248;28;20043;-68
2022/08/30 10:54:49;;;;;;;13.35;6.35;;;;;;;33.38;29.17;99649.81;5097092;28;20081;-68
2022/08/30 10:57:14;;;;;;;15.85;6.70;;;;;;;33.51;29.51;99651.66;5097436;28;20347;-68
2022/08/30 10:59:51;;;;;;;9.10;5.70;;;;;;;33.52;29.24;99650.53;5096660;28;20012;-68
2022/08/30 11:02:40;;;;;;;15.73;6.40;;;;;;;33.57;30.24;99655.06;5103939;28;20035;-68
2022/08/30 11:05:21;;;;;;;11.40;6.50;;;;;;;33.64;30.67;99648.00;5104295;28;20043;-68
2022/08/30 11:08:33;;;;;;;12.20;6.97;;;;;;;33.78;30.43;99644.34;5103153;28;20039;-68
2022/08/30 11:11:04;;;;;;;12.13;6.80;;;;;;;33.72;30.10;99624.44;5019197;28;20070;-68
2022/08/30 11:13:34;;;;;;;15.10;6.22;;;;;;;33.52;30.90;99642.31;5018294;28;20063;-69
2022/08/30 11:16:14;;;;;;;14.93;6.28;;;;;;;33.68;29.48;99636.38;5068276;28;20051;-69
2022/08/30 11:18:51;;;;;;;13.32;6.30;;;;;;;33.84;29.52;99629.34;5103610;28;20040;-69
2022/08/30 11:21:37;;;;;;;15.85;6.45;;;;;;;33.69;30.83;99633.31;5103656;28;20321;-68
2022/08/30 11:24:09;;;;;;;9.18;6.05;;;;;;;33.42;30.98;99622.56;5103825;28;20381;-68
2022/08/30 11:26:49;;;;;;;13.45;7.45;;;;;;;33.33;30.50;99625.25;5103381;28;20091;-68
2022/08/30 11:29:43;;;;;;;17.63;6.38;;;;;;;33.30;31.16;99614.91;5101946;28;20036;-68
2022/08/30 11:32:11;;;;;;;16.67;6.30;;;;;;;33.25;30.14;99615.00;5103278;28;20055;-68
2022/08/30 11:34:46;;;;;;;13.75;5.90;;;;;;;33.42;29.40;99612.38;5103510;28;20077;-68
2022/08/30 11:37:34;;;;;;;13.63;5.78;;;;;;;33.36;29.30;99610.91;5102928;28;20044;-68
2022/08/30 11:40:25;;;;;;;8.10;5.38;;;;;;;33.34;30.04;99610.41;5103460;28;20276;-68
2022/08/30 11:42:55;;;;;;;23.33;6.53;;;;;;;33.31;30.07;99600.06;5053559;28;20044;-68
2022/08/30 11:45:23;;;;;;;16.38;6.57;;;;;;;33.52;29.89;99600.31;5102229;28;20091;-68